Kota Kinabalu, Malaysia
Current Conditions -  °F | °C
As of 6:00 PM on Monday 20 Oct 2014 (Local Time) from WBKK Reporting Station
Broken Clouds Broken Clouds  
Wind Chill: 27°   Ceiling: 27000
Heat Index: 31°   Visibility: 6mi
Dew Point: 25°   Wind: 6mph
Humidity: 89%   Direction: 90°E
Pressure: 29.77"   Gusts: NA
Location:  5.97°N, 116.07°E
Report Text: WBKK 201000Z 09005KT 060V150 9999 FEW014 SCT140 BKN270 27/25 Q1008 NOSIG
Loading
Personal Weather Stations






























Interactive Weather Map New forecast layout! Learn more

10-Day Weather Forecast

Advertisements
Track Severe Weather on mobile